Time;durP1;ratioP1;P1;durP2;ratioP2;P2;SDS_P1;SDS_P2;PMS_P1;PMS_P2;Temp;Humidity;BMP_temperature;BMP_pressure;BME280_temperature;BME280_humidity;BME280_pressure;Samples;Min_cycle;Max_cycle;Signal;HPM_P1;HPM_P2
2022/04/14 00:00:30;;;;;;;12.35;3.28;;;;;;;;;;4972183;28;20034;-75
2022/04/14 00:02:57;;;;;;;9.20;3.40;;;;;;;;;;4969325;28;20029;-75
2022/04/14 00:05:23;;;;;;;11.50;3.78;;;;;;;;;;4968138;28;20035;-74
2022/04/14 00:07:50;;;;;;;14.27;4.00;;;;;;;;;;4968413;28;20383;-75
2022/04/14 00:10:16;;;;;;;9.85;4.40;;;;;;;;;;4967752;28;20467;-75
2022/04/14 00:12:43;;;;;;;8.52;3.83;;;;;;;;;;4970643;28;20443;-75
2022/04/14 00:15:11;;;;;;;10.55;4.00;;;;;;;;;;4970176;28;20027;-75
2022/04/14 00:17:37;;;;;;;9.27;3.22;;;;;;;;;;4955410;28;20095;-74
2022/04/14 00:20:08;;;;;;;10.60;3.15;;;;;;;;;;4967844;28;20030;-75
2022/04/14 00:22:35;;;;;;;;;;;;;;;;;;4968486;28;20056;-74
2022/04/14 00:25:02;;;;;;;11.43;3.30;;;;;;;;;;4970971;28;19920;-74
2022/04/14 00:27:28;;;;;;;8.38;2.75;;;;;;;;;;4972284;28;20031;-75
2022/04/14 00:29:54;;;;;;;10.27;3.38;;;;;;;;;;4968305;28;20061;-75
2022/04/14 00:32:20;;;;;;;8.07;3.08;;;;;;;;;;4967968;28;20033;-75
2022/04/14 00:34:47;;;;;;;8.13;2.90;;;;;;;;;;4968295;28;20019;-75
2022/04/14 00:37:17;;;;;;;8.05;2.78;;;;;;;;;;4971613;28;20438;-75
2022/04/14 00:39:44;;;;;;;11.25;2.92;;;;;;;;;;4973820;28;20081;-75
2022/04/14 00:42:10;;;;;;;9.25;3.20;;;;;;;;;;4973757;28;20030;-74
2022/04/14 00:44:37;;;;;;;10.45;2.88;;;;;;;;;;4972235;28;20023;-75
2022/04/14 00:47:04;;;;;;;10.13;3.38;;;;;;;;;;4974606;28;20052;-75
2022/04/14 00:49:30;;;;;;;14.63;3.40;;;;;;;;;;4971669;28;20026;-75
2022/04/14 00:51:59;;;;;;;10.93;2.92;;;;;;;;;;4972049;28;20034;-75
2022/04/14 00:54:25;;;;;;;11.35;2.92;;;;;;;;;;4975251;28;20039;-75
2022/04/14 00:56:51;;;;;;;7.28;2.85;;;;;;;;;;4971936;28;20034;-74
2022/04/14 00:59:18;;;;;;;8.73;2.90;;;;;;;;;;4958239;28;20023;-75
2022/04/14 01:01:44;;;;;;;8.27;2.80;;;;;;;;;;4971322;28;20038;-75
2022/04/14 01:04:11;;;;;;;10.38;2.90;;;;;;;;;;4971541;28;20031;-74
2022/04/14 01:06:38;;;;;;;7.82;2.50;;;;;;;;;;4974450;28;20037;-75
2022/04/14 01:09:19;;;;;;;12.20;2.70;;;;;;;;;;4972840;28;20031;-75
2022/04/14 01:11:46;;;;;;;9.45;3.03;;;;;;;;;;4971833;28;20023;-74
2022/04/14 01:14:20;;;;;;;10.35;2.95;;;;;;;;;;4971018;28;20063;-75
2022/04/14 01:16:46;;;;;;;8.75;2.38;;;;;;;;;;4970901;28;20029;-75
2022/04/14 01:19:13;;;;;;;5.50;2.47;;;;;;;;;;4970957;28;20027;-75
2022/04/14 01:21:41;;;;;;;7.75;3.13;;;;;;;;;;4973870;28;20034;-74
2022/04/14 01:24:09;;;;;;;9.00;2.70;;;;;;;;;;4972334;28;20061;-75
2022/04/14 01:26:37;;;;;;;7.30;2.53;;;;;;;;;;4971239;28;20027;-74
2022/04/14 01:29:04;;;;;;;11.68;2.80;;;;;;;;;;4970746;28;20105;-75
2022/04/14 01:31:30;;;;;;;6.90;3.10;;;;;;;;;;4970714;28;20041;-75
2022/04/14 01:33:56;;;;;;;7.25;2.50;;;;;;;;;;4971538;28;20026;-75
2022/04/14 01:36:23;;;;;;;5.82;2.65;;;;;;;;;;4974197;28;20041;-74
2022/04/14 01:38:49;;;;;;;10.80;3.00;;;;;;;;;;4971460;28;20029;-74
2022/04/14 01:41:15;;;;;;;6.70;2.70;;;;;;;;;;4970280;28;20035;-74
2022/04/14 01:43:43;;;;;;;7.18;2.50;;;;;;;;;;4970606;28;20050;-75
2022/04/14 01:46:10;;;;;;;5.88;3.30;;;;;;;;;;4970309;28;20033;-74
2022/04/14 01:48:38;;;;;;;8.95;2.58;;;;;;;;;;4973453;28;20019;-74
2022/04/14 01:51:05;;;;;;;10.95;2.60;;;;;;;;;;4971584;28;20042;-75
2022/04/14 01:53:31;;;;;;;6.40;2.50;;;;;;;;;;4974916;28;20045;-75
2022/04/14 01:55:57;;;;;;;8.43;2.60;;;;;;;;;;4970325;28;20029;-75
2022/04/14 01:58:24;;;;;;;7.95;2.63;;;;;;;;;;4970317;28;20546;-75
2022/04/14 02:00:50;;;;;;;7.28;2.75;;;;;;;;;;4971951;28;20041;-75
2022/04/14 02:03:16;;;;;;;3.97;2.20;;;;;;;;;;4973156;28;20041;-75
2022/04/14 02:05:43;;;;;;;9.50;2.53;;;;;;;;;;4970614;28;20034;-75
2022/04/14 02:08:09;;;;;;;7.80;2.95;;;;;;;;;;4970136;28;20098;-74
2022/04/14 02:10:36;;;;;;;9.05;3.25;;;;;;;;;;4970085;28;20041;-74
2022/04/14 02:13:02;;;;;;;9.27;3.17;;;;;;;;;;4969761;28;20027;-75
2022/04/14 02:15:29;;;;;;;11.27;3.17;;;;;;;;;;4974294;28;20026;-75
2022/04/14 02:17:55;;;;;;;8.90;2.90;;;;;;;;;;4970498;28;20034;-75
2022/04/14 02:20:22;;;;;;;6.50;2.80;;;;;;;;;;4969446;28;20500;-75
2022/04/14 02:22:48;;;;;;;8.15;2.83;;;;;;;;;;4969784;28;20037;-75
2022/04/14 02:25:14;;;;;;;7.43;2.47;;;;;;;;;;4970019;28;20036;-75
2022/04/14 02:27:41;;;;;;;7.47;2.88;;;;;;;;;;4972719;28;20057;-74
2022/04/14 02:30:07;;;;;;;9.68;3.13;;;;;;;;;;4971394;28;20057;-75
2022/04/14 02:32:34;;;;;;;9.38;2.65;;;;;;;;;;4969972;28;20026;-75
2022/04/14 02:35:01;;;;;;;6.93;3.17;;;;;;;;;;4969236;28;20455;-75
2022/04/14 02:37:28;;;;;;;5.38;2.47;;;;;;;;;;4956801;28;20027;-75
2022/04/14 02:39:54;;;;;;;8.00;2.83;;;;;;;;;;4970786;28;20043;-75
2022/04/14 02:42:20;;;;;;;6.47;2.92;;;;;;;;;;4972669;28;20054;-74
2022/04/14 02:44:47;;;;;;;9.90;3.65;;;;;;;;;;4970306;28;20035;-74
2022/04/14 02:47:13;;;;;;;8.90;2.47;;;;;;;;;;4969275;28;20130;-74
2022/04/14 02:49:39;;;;;;;7.85;2.67;;;;;;;;;;4955797;28;20033;-74
2022/04/14 02:52:06;;;;;;;9.63;2.95;;;;;;;;;;4969237;28;20030;-75
2022/04/14 02:54:37;;;;;;;7.28;2.60;;;;;;;;;;4972969;28;20034;-75
2022/04/14 02:57:07;;;;;;;6.70;2.45;;;;;;;;;;4970869;28;20026;-74
2022/04/14 02:59:34;;;;;;;5.97;3.13;;;;;;;;;;4972551;28;20102;-74
2022/04/14 03:02:00;;;;;;;10.13;3.08;;;;;;;;;;4968924;28;20047;-75
2022/04/14 03:04:29;;;;;;;11.13;3.20;;;;;;;;;;4968718;28;20035;-74
2022/04/14 03:06:56;;;;;;;6.88;2.90;;;;;;;;;;4969834;28;20031;-75
2022/04/14 03:09:22;;;;;;;8.52;3.22;;;;;;;;;;4972751;28;20031;-74
2022/04/14 03:11:48;;;;;;;6.22;3.05;;;;;;;;;;4969534;28;20030;-75
2022/04/14 03:14:15;;;;;;;9.35;2.80;;;;;;;;;;4968986;28;20018;-75
2022/04/14 03:16:41;;;;;;;9.40;2.40;;;;;;;;;;4968832;28;20494;-75
2022/04/14 03:19:07;;;;;;;9.70;3.33;;;;;;;;;;4968556;28;20039;-75
2022/04/14 03:21:34;;;;;;;8.93;2.88;;;;;;;;;;4972281;28;20381;-75
2022/04/14 03:24:00;;;;;;;11.13;3.20;;;;;;;;;;4970061;28;20399;-74
2022/04/14 03:26:26;;;;;;;11.10;3.33;;;;;;;;;;4969140;28;20037;-75
2022/04/14 03:28:53;;;;;;;11.18;3.25;;;;;;;;;;4968538;28;20043;-75
2022/04/14 03:31:19;;;;;;;13.48;2.80;;;;;;;;;;4968781;28;20034;-75
2022/04/14 03:33:45;;;;;;;9.13;3.00;;;;;;;;;;4970352;28;20377;-74
2022/04/14 03:36:12;;;;;;;6.95;3.13;;;;;;;;;;4971091;28;20035;-75
2022/04/14 03:38:38;;;;;;;10.85;2.85;;;;;;;;;;4969006;28;20027;-75
2022/04/14 03:41:06;;;;;;;6.95;3.00;;;;;;;;;;4968461;28;20061;-75
2022/04/14 03:43:33;;;;;;;8.75;2.70;;;;;;;;;;4968449;28;20542;-74
2022/04/14 03:45:59;;;;;;;7.75;2.90;;;;;;;;;;4968658;28;20039;-75
2022/04/14 03:48:26;;;;;;;10.13;3.25;;;;;;;;;;4972385;28;20027;-75
2022/04/14 03:50:52;;;;;;;9.88;2.92;;;;;;;;;;4969112;28;20138;-75
2022/04/14 03:53:18;;;;;;;9.07;2.72;;;;;;;;;;4968331;28;20027;-75
2022/04/14 03:55:48;;;;;;;9.52;2.50;;;;;;;;;;4968370;28;20033;-74
2022/04/14 03:58:17;;;;;;;9.35;2.75;;;;;;;;;;4968166;28;20439;-74
2022/04/14 04:00:44;;;;;;;25.50;6.13;;;;;;;;;;4970519;28;20029;-75
2022/04/14 04:03:13;;;;;;;24.42;6.22;;;;;;;;;;4970253;28;20037;-75
2022/04/14 04:05:40;;;;;;;16.63;4.45;;;;;;;;;;4971197;28;20027;-74
2022/04/14 04:08:06;;;;;;;9.10;3.20;;;;;;;;;;4968128;28;20037;-75
2022/04/14 04:10:33;;;;;;;9.45;3.15;;;;;;;;;;4970043;28;20065;-75
2022/04/14 04:12:59;;;;;;;9.25;2.72;;;;;;;;;;4972573;28;20411;-75
2022/04/14 04:15:25;;;;;;;9.00;3.10;;;;;;;;;;4976451;28;20043;-75
2022/04/14 04:17:52;;;;;;;11.63;3.78;;;;;;;;;;4972273;28;20018;-75
2022/04/14 04:20:19;;;;;;;30.08;8.48;;;;;;;;;;4971981;28;20029;-75
2022/04/14 04:22:45;;;;;;;30.13;7.82;;;;;;;;;;4971920;28;20511;-74
2022/04/14 04:25:11;;;;;;;56.47;14.65;;;;;;;;;;4971915;28;20027;-75
2022/04/14 04:27:39;;;;;;;29.75;8.45;;;;;;;;;;4974933;28;20025;-74
2022/04/14 04:30:06;;;;;;;14.82;4.68;;;;;;;;;;4973514;28;20557;-75
2022/04/14 04:32:33;;;;;;;10.20;3.70;;;;;;;;;;4971825;28;20030;-75
2022/04/14 04:35:03;;;;;;;17.88;4.10;;;;;;;;;;4971700;28;20029;-74
2022/04/14 04:37:30;;;;;;;18.63;5.60;;;;;;;;;;4971875;28;20053;-75
2022/04/14 04:39:56;;;;;;;11.35;3.80;;;;;;;;;;4972308;28;20038;-75
2022/04/14 04:42:22;;;;;;;10.23;3.80;;;;;;;;;;4975577;28;20034;-74
2022/04/14 04:44:49;;;;;;;6.72;2.90;;;;;;;;;;4959435;28;20037;-74
2022/04/14 04:47:16;;;;;;;5.82;2.60;;;;;;;;;;4971546;28;20031;-75
2022/04/14 04:49:43;;;;;;;8.98;2.95;;;;;;;;;;4971620;28;20488;-74
2022/04/14 04:52:09;;;;;;;8.93;2.88;;;;;;;;;;4971399;28;20032;-74
2022/04/14 04:54:36;;;;;;;10.38;3.00;;;;;;;;;;4974561;28;20436;-75
2022/04/14 04:57:02;;;;;;;8.77;2.90;;;;;;;;;;4972977;28;20391;-74
2022/04/14 04:59:28;;;;;;;11.13;3.17;;;;;;;;;;4971515;28;20015;-74
2022/04/14 05:01:55;;;;;;;7.65;3.03;;;;;;;;;;4958294;28;20047;-75
2022/04/14 05:04:21;;;;;;;5.65;2.95;;;;;;;;;;4971290;28;20035;-74
2022/04/14 05:06:47;;;;;;;6.22;2.72;;;;;;;;;;4973322;28;20023;-75
2022/04/14 05:09:14;;;;;;;9.07;3.20;;;;;;;;;;4973863;28;20033;-75
2022/04/14 05:11:40;;;;;;;10.43;3.50;;;;;;;;;;4971633;28;20450;-74
2022/04/14 05:14:08;;;;;;;11.50;3.45;;;;;;;;;;4970909;28;20122;-75
2022/04/14 05:16:34;;;;;;;9.57;3.40;;;;;;;;;;4971072;28;20023;-75
2022/04/14 05:19:00;;;;;;;7.40;3.10;;;;;;;;;;4971240;28;20440;-75
2022/04/14 05:21:27;;;;;;;10.02;3.20;;;;;;;;;;4974392;28;20035;-75
2022/04/14 05:23:53;;;;;;;10.57;3.10;;;;;;;;;;4971367;28;20023;-74
2022/04/14 05:26:20;;;;;;;7.93;3.40;;;;;;;;;;4970978;28;20031;-75
2022/04/14 05:28:46;;;;;;;8.50;3.15;;;;;;;;;;4949735;29;20036;-74
2022/04/14 05:31:12;;;;;;;8.27;3.25;;;;;;;;;;4950050;29;20039;-75
2022/04/14 05:33:39;;;;;;;9.55;4.20;;;;;;;;;;4953144;29;20495;-75
2022/04/14 05:36:06;;;;;;;11.65;4.68;;;;;;;;;;4954752;29;20049;-75
2022/04/14 05:38:32;;;;;;;9.20;4.57;;;;;;;;;;4949392;29;20038;-75
2022/04/14 05:40:59;;;;;;;9.07;4.07;;;;;;;;;;4955081;29;20481;-75
2022/04/14 05:43:27;;;;;;;9.25;5.00;;;;;;;;;;4945436;29;20045;-75
2022/04/14 05:45:54;;;;;;;14.70;5.43;;;;;;;;;;4951673;29;20027;-74
2022/04/14 05:48:21;;;;;;;12.05;4.60;;;;;;;;;;4951416;29;20019;-75
2022/04/14 05:50:49;;;;;;;13.20;4.30;;;;;;;;;;4955516;28;20039;-74
2022/04/14 05:53:16;;;;;;;7.95;3.67;;;;;;;;;;4946971;29;20027;-75
2022/04/14 05:55:44;;;;;;;10.23;4.20;;;;;;;;;;4954863;29;20027;-74
2022/04/14 05:58:12;;;;;;;10.82;3.30;;;;;;;;;;4949772;29;20019;-75
2022/04/14 06:00:39;;;;;;;9.07;3.80;;;;;;;;;;4952412;29;20031;-75
2022/04/14 06:03:05;;;;;;;10.05;4.20;;;;;;;;;;4954586;29;20042;-75
2022/04/14 06:05:32;;;;;;;14.60;4.13;;;;;;;;;;4947618;29;20082;-75
2022/04/14 06:07:58;;;;;;;10.57;4.00;;;;;;;;;;4954534;29;20023;-75
2022/04/14 06:10:26;;;;;;;10.68;3.80;;;;;;;;;;4948028;29;20020;-74
2022/04/14 06:12:55;;;;;;;9.55;3.67;;;;;;;;;;4950279;29;20027;-75
2022/04/14 06:15:21;;;;;;;10.90;3.30;;;;;;;;;;4950678;29;20024;-74
2022/04/14 06:17:48;;;;;;;7.05;3.75;;;;;;;;;;4950167;29;20436;-75
2022/04/14 06:20:14;;;;;;;11.57;3.90;;;;;;;;;;4954316;29;20059;-75
2022/04/14 06:22:42;;;;;;;12.27;3.30;;;;;;;;;;4946411;29;20412;-75
2022/04/14 06:25:12;;;;;;;14.18;6.07;;;;;;;;;;4953751;29;20031;-75
2022/04/14 06:27:43;;;;;;;15.90;5.30;;;;;;;;;;4966338;28;20031;-75
2022/04/14 06:30:10;;;;;;;15.13;5.15;;;;;;;;;;4973424;28;20085;-74
2022/04/14 06:32:37;;;;;;;9.45;4.60;;;;;;;;;;4969418;28;20403;-75
2022/04/14 06:35:05;;;;;;;11.27;4.53;;;;;;;;;;4968994;28;20048;-74
2022/04/14 06:37:31;;;;;;;12.57;4.22;;;;;;;;;;4971341;28;20018;-75
2022/04/14 06:39:57;;;;;;;7.57;3.80;;;;;;;;;;4969682;28;20520;-75
2022/04/14 06:42:24;;;;;;;13.05;4.30;;;;;;;;;;4965418;28;20039;-76
2022/04/14 06:44:50;;;;;;;13.10;4.25;;;;;;;;;;4967578;28;20374;-75
2022/04/14 06:47:17;;;;;;;8.90;4.38;;;;;;;;;;4966344;28;20380;-75
2022/04/14 06:49:43;;;;;;;12.88;4.25;;;;;;;;;;4969533;28;20029;-75
2022/04/14 06:52:10;;;;;;;8.63;4.03;;;;;;;;;;4966299;28;20391;-74
2022/04/14 06:54:36;;;;;;;10.20;3.78;;;;;;;;;;4971960;28;20033;-75
2022/04/14 06:57:02;;;;;;;5.40;3.05;;;;;;;;;;4969473;28;20042;-75
2022/04/14 06:59:29;;;;;;;5.43;3.05;;;;;;;;;;4972762;28;20041;-75
2022/04/14 07:01:55;;;;;;;9.15;3.75;;;;;;;;;;4972102;28;20077;-76
2022/04/14 07:04:21;;;;;;;15.02;3.80;;;;;;;;;;4955149;28;20030;-76
2022/04/14 07:06:48;;;;;;;12.43;3.28;;;;;;;;;;4970672;28;20022;-76
2022/04/14 07:09:14;;;;;;;7.30;3.03;;;;;;;;;;4969104;28;20022;-76
2022/04/14 07:11:40;;;;;;;5.22;3.10;;;;;;;;;;4966875;28;20399;-76
2022/04/14 07:14:07;;;;;;;10.45;3.28;;;;;;;;;;4967747;28;20035;-76
2022/04/14 07:16:33;;;;;;;9.23;3.17;;;;;;;;;;4968927;28;20027;-76
2022/04/14 07:18:59;;;;;;;8.43;3.13;;;;;;;;;;4967678;28;20046;-77
2022/04/14 07:21:26;;;;;;;11.27;3.67;;;;;;;;;;4970915;28;20788;-77
2022/04/14 07:23:52;;;;;;;9.30;2.75;;;;;;;;;;4968187;28;20039;-77
2022/04/14 07:26:18;;;;;;;11.65;2.97;;;;;;;;;;4969159;28;20027;-78
2022/04/14 07:28:45;;;;;;;10.35;4.35;;;;;;;;;;4966639;28;20058;-78
2022/04/14 07:31:11;;;;;;;15.05;3.45;;;;;;;;;;4967466;28;20032;-78
2022/04/14 07:33:38;;;;;;;15.25;3.38;;;;;;;;;;4971474;28;20405;-77
2022/04/14 07:36:04;;;;;;;14.82;3.35;;;;;;;;;;4971710;28;20029;-77
2022/04/14 07:38:31;;;;;;;7.53;2.92;;;;;;;;;;4968206;28;20031;-78
2022/04/14 07:40:57;;;;;;;12.52;3.67;;;;;;;;;;4966776;28;20043;-78
2022/04/14 07:43:24;;;;;;;9.52;3.80;;;;;;;;;;4966965;28;20033;-78
2022/04/14 07:45:50;;;;;;;11.38;3.67;;;;;;;;;;4968272;28;20038;-78
2022/04/14 07:48:21;;;;;;;7.95;3.08;;;;;;;;;;4970402;28;20023;-78
2022/04/14 07:50:48;;;;;;;12.32;3.58;;;;;;;;;;4970809;28;20034;-78
2022/04/14 07:53:14;;;;;;;7.85;3.33;;;;;;;;;;4969136;28;20514;-78
2022/04/14 07:55:41;;;;;;;13.13;3.58;;;;;;;;;;4967198;28;20137;-78
2022/04/14 07:58:07;;;;;;;6.88;3.50;;;;;;;;;;4966886;28;20046;-78
2022/04/14 08:00:34;;;;;;;9.93;3.17;;;;;;;;;;4953688;28;20034;-79
2022/04/14 08:03:01;;;;;;;10.52;3.25;;;;;;;;;;4969517;28;20114;-78
2022/04/14 08:05:27;;;;;;;12.68;3.65;;;;;;;;;;4970149;28;20334;-78
2022/04/14 08:07:54;;;;;;;12.88;3.50;;;;;;;;;;4968689;28;20030;-79
2022/04/14 08:10:20;;;;;;;12.38;3.25;;;;;;;;;;4968955;28;20034;-79
2022/04/14 08:12:47;;;;;;;17.95;3.70;;;;;;;;;;4969994;28;20496;-78
2022/04/14 08:15:14;;;;;;;18.17;3.75;;;;;;;;;;4969774;28;20046;-78
2022/04/14 08:17:43;;;;;;;11.88;3.65;;;;;;;;;;4969183;28;20034;-79
2022/04/14 08:20:11;;;;;;;12.10;4.17;;;;;;;;;;4965379;28;20029;-79
2022/04/14 08:22:47;;;;;;;12.32;3.70;;;;;;;;;;4968588;28;20500;-79
2022/04/14 08:25:15;;;;;;;12.93;3.85;;;;;;;;;;4966131;28;20019;-80
2022/04/14 08:27:41;;;;;;;15.18;3.70;;;;;;;;;;4968635;28;20390;-79
2022/04/14 08:30:08;;;;;;;7.93;3.53;;;;;;;;;;4968124;28;20042;-79
2022/04/14 08:32:35;;;;;;;7.47;3.45;;;;;;;;;;4966594;28;20039;-79
2022/04/14 08:35:02;;;;;;;8.75;3.30;;;;;;;;;;4966526;28;20037;-80
2022/04/14 08:37:29;;;;;;;14.50;4.07;;;;;;;;;;4953109;28;20151;-79
2022/04/14 08:39:55;;;;;;;9.65;3.70;;;;;;;;;;4967748;28;20039;-79
2022/04/14 08:42:25;;;;;;;13.13;4.05;;;;;;;;;;4969362;28;20670;-80
2022/04/14 08:44:54;;;;;;;15.90;3.92;;;;;;;;;;4971396;28;20034;-80
2022/04/14 08:47:21;;;;;;;18.30;4.07;;;;;;;;;;4960836;28;20395;-80
2022/04/14 08:49:48;;;;;;;14.32;3.55;;;;;;;;;;4966618;28;20035;-81
2022/04/14 08:52:15;;;;;;;10.02;3.38;;;;;;;;;;4967630;28;20039;-80
2022/04/14 08:54:46;;;;;;;14.95;3.72;;;;;;;;;;4968790;28;20521;-80
2022/04/14 08:57:13;;;;;;;9.25;3.20;;;;;;;;;;4972994;28;20041;-81
2022/04/14 08:59:45;;;;;;;10.38;3.00;;;;;;;;;;4970253;28;20022;-80
2022/04/14 09:02:17;;;;;;;8.63;3.75;;;;;;;;;;4969753;28;20049;-80
2022/04/14 09:04:44;;;;;;;10.82;3.55;;;;;;;;;;4969503;28;20500;-81
2022/04/14 09:07:11;;;;;;;11.40;3.00;;;;;;;;;;4969705;28;20488;-81
2022/04/14 09:09:37;;;;;;;7.30;2.83;;;;;;;;;;4971910;28;20492;-81
2022/04/14 09:12:04;;;;;;;10.65;3.28;;;;;;;;;;4973967;28;20162;-81
2022/04/14 09:14:34;;;;;;;11.30;2.80;;;;;;;;;;4969820;28;20033;-81
2022/04/14 09:17:02;;;;;;;10.95;2.75;;;;;;;;;;4972207;28;20522;-81
2022/04/14 09:19:31;;;;;;;7.22;2.67;;;;;;;;;;4969881;28;20034;-81
2022/04/14 09:21:58;;;;;;;7.50;2.58;;;;;;;;;;4960427;28;20049;-81
2022/04/14 09:24:40;;;;;;;7.00;2.40;;;;;;;;;;4972784;28;20578;-81
2022/04/14 09:27:07;;;;;;;8.57;2.70;;;;;;;;;;4969680;28;20029;-80
2022/04/14 09:29:33;;;;;;;7.63;2.40;;;;;;;;;;4972559;28;20051;-81
2022/04/14 09:32:00;;;;;;;10.63;2.75;;;;;;;;;;4955481;28;20043;-82
2022/04/14 09:34:49;;;;;;;9.43;2.53;;;;;;;;;;4973059;28;20037;-82
2022/04/14 09:37:15;;;;;;;6.57;2.70;;;;;;;;;;4969755;28;20031;-81
2022/04/14 09:39:51;;;;;;;9.38;2.42;;;;;;;;;;4960736;28;20023;-82
2022/04/14 09:42:20;;;;;;;6.53;2.67;;;;;;;;;;4969618;28;20027;-81
2022/04/14 09:44:48;;;;;;;12.13;2.97;;;;;;;;;;4972607;28;20023;-81
2022/04/14 09:47:24;;;;;;;15.55;2.17;;;;;;;;;;4970043;28;20041;-81
2022/04/14 09:49:50;;;;;;;6.40;2.60;;;;;;;;;;4969431;28;20107;-81
2022/04/14 09:52:16;;;;;;;8.85;2.60;;;;;;;;;;4954310;28;20050;-81
2022/04/14 09:54:45;;;;;;;11.68;2.80;;;;;;;;;;4971188;28;20078;-82
2022/04/14 09:57:12;;;;;;;9.48;2.83;;;;;;;;;;4971132;28;20424;-81
2022/04/14 09:59:38;;;;;;;11.20;2.47;;;;;;;;;;4968978;28;20027;-81
2022/04/14 10:02:12;;;;;;;11.00;2.17;;;;;;;;;;4968766;28;20035;-81
2022/04/14 10:04:40;;;;;;;6.70;2.15;;;;;;;;;;4967605;28;20035;-81
2022/04/14 10:07:09;;;;;;;5.63;2.20;;;;;;;;;;4967833;28;20061;-80
2022/04/14 10:09:39;;;;;;;12.48;2.22;;;;;;;;;;4970609;28;20031;-80
2022/04/14 10:12:25;;;;;;;5.10;2.00;;;;;;;;;;4972775;28;20041;-81
2022/04/14 10:15:04;;;;;;;14.95;2.60;;;;;;;;;;4969184;28;20031;-81
2022/04/14 10:17:37;;;;;;;7.07;2.43;;;;;;;;;;4956077;28;20049;-81
2022/04/14 10:20:04;;;;;;;5.55;2.45;;;;;;;;;;4966960;28;20019;-80
2022/04/14 10:22:31;;;;;;;15.73;2.50;;;;;;;;;;4968461;28;20015;-81
2022/04/14 10:24:58;;;;;;;6.53;2.60;;;;;;;;;;4969366;28;20035;-80
2022/04/14 10:27:26;;;;;;;5.93;2.20;;;;;;;;;;4972882;28;20025;-81
2022/04/14 10:29:52;;;;;;;6.60;2.13;;;;;;;;;;4968938;28;20508;-81
2022/04/14 10:32:19;;;;;;;9.80;2.00;;;;;;;;;;4968710;28;20035;-81
2022/04/14 10:34:46;;;;;;;6.82;2.08;;;;;;;;;;4968040;28;20027;-80
2022/04/14 10:37:22;;;;;;;9.00;2.17;;;;;;;;;;4968468;28;20031;-82
2022/04/14 10:39:49;;;;;;;8.10;2.10;;;;;;;;;;4953133;28;20039;-83
2022/04/14 10:42:26;;;;;;;7.80;2.30;;;;;;;;;;4971233;28;20038;-83
2022/04/14 10:44:53;;;;;;;9.93;2.22;;;;;;;;;;4969001;28;20031;-84
2022/04/14 10:47:35;;;;;;;7.60;2.10;;;;;;;;;;4967700;28;20037;-83
2022/04/14 10:50:03;;;;;;;10.13;2.40;;;;;;;;;;4967958;28;20039;-84
2022/04/14 10:52:29;;;;;;;7.75;2.40;;;;;;;;;;4967981;28;20039;-84
2022/04/14 10:54:59;;;;;;;9.82;2.22;;;;;;;;;;4968797;28;20035;-83
2022/04/14 10:57:25;;;;;;;;;;;;;;;;;;4972507;28;20057;-83
2022/04/14 10:59:54;;;;;;;5.38;1.98;;;;;;;;;;4968756;28;19910;-84
2022/04/14 11:02:21;;;;;;;6.37;1.93;;;;;;;;;;4967302;28;20073;-83
2022/04/14 11:04:51;;;;;;;5.40;2.03;;;;;;;;;;4968325;28;20031;-83
2022/04/14 11:07:20;;;;;;;7.60;1.77;;;;;;;;;;4968241;28;20046;-83
2022/04/14 11:09:48;;;;;;;7.63;2.28;;;;;;;;;;4970067;28;20034;-82
2022/04/14 11:12:20;;;;;;;4.97;2.00;;;;;;;;;;4972319;28;20031;-83
2022/04/14 11:14:50;;;;;;;4.95;2.28;;;;;;;;;;4971353;28;20545;-83
2022/04/14 11:17:16;;;;;;;;;;;;;;;;;;4970672;28;20460;-83
2022/04/14 11:19:43;;;;;;;7.57;2.33;;;;;;;;;;4969118;28;19914;-83
2022/04/14 11:22:09;;;;;;;10.25;2.03;;;;;;;;;;4967042;28;20031;-82
2022/04/14 11:24:40;;;;;;;13.57;2.30;;;;;;;;;;4970121;28;20049;-83
2022/04/14 11:27:09;;;;;;;5.50;2.10;;;;;;;;;;4971247;28;20019;-83
2022/04/14 11:29:37;;;;;;;10.25;2.25;;;;;;;;;;4970850;28;20173;-82
2022/04/14 11:32:04;;;;;;;11.40;2.45;;;;;;;;;;4966847;28;20522;-82
2022/04/14 11:34:37;;;;;;;10.75;2.25;;;;;;;;;;4966755;28;20466;-83
2022/04/14 11:37:04;;;;;;;7.18;2.00;;;;;;;;;;4969764;28;20027;-84
2022/04/14 11:39:32;;;;;;;7.35;2.08;;;;;;;;;;4970419;28;20023;-83
2022/04/14 11:42:11;;;;;;;6.18;2.33;;;;;;;;;;4967979;28;20530;-82
2022/04/14 11:44:37;;;;;;;7.93;2.30;;;;;;;;;;4971243;28;20022;-82
2022/04/14 11:47:07;;;;;;;10.27;2.42;;;;;;;;;;4954135;28;20447;-83
2022/04/14 11:49:35;;;;;;;6.85;1.83;;;;;;;;;;4966249;28;20026;-83
2022/04/14 11:52:02;;;;;;;7.30;2.33;;;;;;;;;;4970762;28;20038;-84
2022/04/14 11:54:31;;;;;;;4.95;2.10;;;;;;;;;;4971822;28;20045;-84
2022/04/14 11:56:58;;;;;;;9.03;2.20;;;;;;;;;;4966085;28;20027;-84
2022/04/14 11:59:37;;;;;;;6.07;2.25;;;;;;;;;;4967429;28;20507;-82
2022/04/14 12:02:05;;;;;;;10.52;2.30;;;;;;;;;;4966244;28;20027;-82
2022/04/14 12:04:35;;;;;;;9.90;2.60;;;;;;;;;;4968544;28;20023;-83
2022/04/14 12:07:02;;;;;;;8.15;2.35;;;;;;;;;;4962736;28;20452;-83
2022/04/14 12:09:29;;;;;;;7.93;2.25;;;;;;;;;;4970272;28;20050;-83
2022/04/14 12:11:55;;;;;;;8.60;2.15;;;;;;;;;;4969381;28;20037;-82
2022/04/14 12:14:22;;;;;;;6.47;1.98;;;;;;;;;;4970630;28;20029;-81
2022/04/14 12:16:48;;;;;;;7.90;2.28;;;;;;;;;;4968796;28;20030;-82
2022/04/14 12:19:15;;;;;;;6.75;2.13;;;;;;;;;;4966351;28;20027;-82
2022/04/14 12:21:41;;;;;;;7.18;2.42;;;;;;;;;;4968527;28;20415;-82
2022/04/14 12:24:07;;;;;;;5.97;2.00;;;;;;;;;;4967442;28;20061;-82
2022/04/14 12:26:37;;;;;;;9.65;2.45;;;;;;;;;;4970040;28;20488;-81
2022/04/14 12:29:08;;;;;;;7.95;2.03;;;;;;;;;;4968644;28;20051;-82
2022/04/14 12:31:34;;;;;;;9.80;2.00;;;;;;;;;;4968204;28;20033;-81
2022/04/14 12:34:01;;;;;;;9.75;2.30;;;;;;;;;;4970710;28;20038;-82
2022/04/14 12:36:37;;;;;;;9.05;2.30;;;;;;;;;;4974544;28;20023;-82
2022/04/14 12:39:04;;;;;;;5.07;1.90;;;;;;;;;;4971441;28;20380;-80
2022/04/14 12:41:35;;;;;;;10.85;2.13;;;;;;;;;;4974259;28;20018;-81
2022/04/14 12:44:02;;;;;;;9.43;2.20;;;;;;;;;;4969895;28;20073;-81
2022/04/14 12:46:39;;;;;;;11.45;2.15;;;;;;;;;;4969855;28;20030;-81
2022/04/14 12:49:09;;;;;;;10.48;2.30;;;;;;;;;;4970177;28;20023;-80
2022/04/14 12:51:56;;;;;;;9.98;2.25;;;;;;;;;;4974518;28;20142;-80
2022/04/14 12:54:25;;;;;;;7.18;2.20;;;;;;;;;;4975455;28;20045;-80
2022/04/14 12:57:02;;;;;;;12.55;2.17;;;;;;;;;;4971646;28;20041;-80
2022/04/14 12:59:29;;;;;;;11.65;2.00;;;;;;;;;;4970310;28;20455;-80
2022/04/14 13:01:56;;;;;;;10.25;2.45;;;;;;;;;;4973831;28;20104;-80
2022/04/14 13:04:32;;;;;;;8.65;2.25;;;;;;;;;;4972514;28;20018;-79
2022/04/14 13:07:05;;;;;;;7.78;2.42;;;;;;;;;;4969999;28;20019;-79
2022/04/14 13:09:34;;;;;;;10.25;2.00;;;;;;;;;;4950298;28;20027;-79
2022/04/14 13:12:01;;;;;;;7.97;2.15;;;;;;;;;;4971734;28;20038;-79
2022/04/14 13:14:31;;;;;;;9.55;2.42;;;;;;;;;;4974042;28;20033;-79
2022/04/14 13:16:58;;;;;;;9.20;2.28;;;;;;;;;;4970344;28;20042;-79
2022/04/14 13:19:25;;;;;;;9.23;1.83;;;;;;;;;;4970639;28;20108;-78
2022/04/14 13:21:53;;;;;;;11.30;2.00;;;;;;;;;;4972749;28;20510;-78
2022/04/14 13:24:19;;;;;;;13.60;2.38;;;;;;;;;;4973248;28;20041;-79
2022/04/14 13:26:46;;;;;;;7.60;2.33;;;;;;;;;;4969734;28;20035;-80
2022/04/14 13:29:13;;;;;;;8.52;2.00;;;;;;;;;;4968761;28;20110;-79
2022/04/14 13:31:40;;;;;;;8.45;2.17;;;;;;;;;;4956288;28;20038;-79
2022/04/14 13:34:07;;;;;;;6.63;2.10;;;;;;;;;;4968650;28;20041;-78
2022/04/14 13:36:33;;;;;;;11.60;2.40;;;;;;;;;;4974008;28;20029;-79
2022/04/14 13:39:00;;;;;;;9.95;2.17;;;;;;;;;;4970269;28;20038;-79
2022/04/14 13:41:27;;;;;;;7.03;2.35;;;;;;;;;;4969080;28;20077;-79
2022/04/14 13:43:53;;;;;;;8.82;2.08;;;;;;;;;;4968435;28;20034;-80
2022/04/14 13:46:19;;;;;;;8.73;1.95;;;;;;;;;;4969103;28;20053;-79
2022/04/14 13:48:46;;;;;;;11.45;2.60;;;;;;;;;;4971845;28;20404;-79
2022/04/14 13:51:13;;;;;;;7.90;2.38;;;;;;;;;;4971064;28;20029;-80
2022/04/14 13:53:40;;;;;;;10.27;2.40;;;;;;;;;;4972381;28;20134;-79
2022/04/14 13:56:07;;;;;;;7.50;2.40;;;;;;;;;;4972132;28;20037;-79
2022/04/14 13:58:34;;;;;;;9.05;1.90;;;;;;;;;;4955958;28;20039;-79
2022/04/14 14:01:01;;;;;;;12.70;3.00;;;;;;;;;;4970047;28;20027;-79
2022/04/14 14:03:31;;;;;;;8.68;2.00;;;;;;;;;;4971251;28;20033;-79
2022/04/14 14:05:58;;;;;;;12.17;2.13;;;;;;;;;;4972299;28;20022;-79
2022/04/14 14:08:25;;;;;;;8.25;1.98;;;;;;;;;;4972751;28;20023;-77
2022/04/14 14:10:51;;;;;;;14.50;2.45;;;;;;;;;;4971944;28;20033;-78
2022/04/14 14:13:18;;;;;;;9.15;2.10;;;;;;;;;;4968240;28;20078;-78
2022/04/14 14:15:44;;;;;;;12.07;2.20;;;;;;;;;;4971039;28;20810;-78
2022/04/14 14:18:10;;;;;;;7.22;1.92;;;;;;;;;;4970355;28;20033;-79
2022/04/14 14:20:37;;;;;;;9.60;2.10;;;;;;;;;;4967533;28;20023;-79
2022/04/14 14:23:03;;;;;;;8.55;2.20;;;;;;;;;;4968624;28;20033;-78
2022/04/14 14:25:31;;;;;;;8.85;2.25;;;;;;;;;;4966066;28;21159;-78
2022/04/14 14:27:58;;;;;;;10.05;3.15;;;;;;;;;;4969985;28;20038;-78
2022/04/14 14:30:25;;;;;;;8.77;2.28;;;;;;;;;;4971710;28;20014;-78
2022/04/14 14:32:51;;;;;;;12.30;2.05;;;;;;;;;;4968564;28;20037;-77
2022/04/14 14:35:18;;;;;;;14.57;2.53;;;;;;;;;;4971455;28;20491;-78
2022/04/14 14:37:45;;;;;;;8.70;2.00;;;;;;;;;;4968231;28;20395;-78
2022/04/14 14:40:12;;;;;;;8.95;2.20;;;;;;;;;;4967917;28;20047;-78